createdAt,value
2024-01-24T00:00:48.033Z,512.00
2024-01-24T00:01:48.101Z,513.00
2024-01-24T00:02:50.415Z,514.00
2024-01-24T00:03:48.432Z,514.00
2024-01-24T00:04:48.360Z,509.00
2024-01-24T00:05:48.381Z,512.00
2024-01-24T00:06:49.053Z,513.00
2024-01-24T00:07:48.524Z,510.00
2024-01-24T00:08:48.554Z,507.00
2024-01-24T00:09:48.686Z,505.00
2024-01-24T00:10:49.041Z,503.00
2024-01-24T00:11:48.825Z,504.00
2024-01-24T00:12:48.977Z,506.00
2024-01-24T00:13:48.939Z,505.00
2024-01-24T00:14:48.993Z,506.00
2024-01-24T00:15:49.197Z,506.00
2024-01-24T00:16:49.117Z,505.00
2024-01-24T00:17:49.564Z,509.00
2024-01-24T00:18:49.399Z,510.00
2024-01-24T00:19:49.351Z,511.00
2024-01-24T00:20:49.396Z,511.00
2024-01-24T00:21:49.540Z,510.00
2024-01-24T00:22:49.615Z,510.00
2024-01-24T00:23:49.585Z,510.00
2024-01-24T00:24:49.698Z,511.00
2024-01-24T00:25:49.741Z,512.00
2024-01-24T00:26:49.770Z,514.00
2024-01-24T00:27:49.924Z,511.00
2024-01-24T00:28:49.925Z,512.00
2024-01-24T00:29:49.976Z,520.00
2024-01-24T00:30:50.026Z,522.00
2024-01-24T00:31:50.053Z,524.00
2024-01-24T00:32:50.151Z,522.00
2024-01-24T00:33:50.229Z,520.00
2024-01-24T00:34:50.256Z,524.00
2024-01-24T00:35:50.288Z,533.00
2024-01-24T00:36:50.432Z,538.00
2024-01-24T00:37:50.403Z,537.00
2024-01-24T00:38:50.443Z,537.00
2024-01-24T00:39:50.883Z,537.00
2024-01-24T00:40:50.549Z,533.00
2024-01-24T00:41:50.601Z,532.00
2024-01-24T00:42:50.674Z,534.00
2024-01-24T00:43:50.673Z,532.00
2024-01-24T00:44:50.717Z,527.00
2024-01-24T00:45:50.969Z,529.00
2024-01-24T00:46:50.834Z,537.00
2024-01-24T00:47:50.881Z,543.00
2024-01-24T00:48:51.002Z,540.00
2024-01-24T00:49:50.948Z,535.00
2024-01-24T00:50:51.022Z,533.00
2024-01-24T00:51:51.089Z,532.00
2024-01-24T00:52:51.087Z,534.00
2024-01-24T00:53:51.144Z,537.00
2024-01-24T00:54:51.179Z,540.00
2024-01-24T00:55:51.202Z,537.00
2024-01-24T00:56:51.281Z,535.00
2024-01-24T00:57:51.331Z,534.00
2024-01-24T00:58:51.339Z,534.00
2024-01-24T00:59:51.364Z,533.00
2024-01-24T01:00:51.498Z,533.00
2024-01-24T01:01:51.498Z,529.00
2024-01-24T01:02:51.523Z,530.00
2024-01-24T01:03:51.609Z,529.00
2024-01-24T01:04:51.623Z,528.00
2024-01-24T01:05:51.631Z,530.00
2024-01-24T01:06:51.720Z,524.00
2024-01-24T01:07:51.761Z,522.00
2024-01-24T01:08:51.801Z,532.00
2024-01-24T01:09:51.881Z,531.00
2024-01-24T01:10:51.868Z,526.00
2024-01-24T01:11:51.925Z,524.00
2024-01-24T01:12:52.045Z,529.00
2024-01-24T01:13:52.003Z,532.00
2024-01-24T01:14:52.051Z,537.00
2024-01-24T01:15:52.137Z,538.00
2024-01-24T01:16:52.168Z,539.00
2024-01-24T01:17:52.230Z,543.00
2024-01-24T01:18:52.284Z,539.00
2024-01-24T01:19:52.253Z,542.00
2024-01-24T01:20:52.317Z,543.00
2024-01-24T01:21:52.452Z,543.00
2024-01-24T01:22:52.409Z,538.00
2024-01-24T01:23:52.473Z,539.00
2024-01-24T01:24:52.535Z,537.00
2024-01-24T01:25:52.640Z,535.00
2024-01-24T01:26:52.595Z,534.00
2024-01-24T01:27:52.759Z,541.00
2024-01-24T01:28:52.681Z,544.00
2024-01-24T01:29:52.712Z,540.00
2024-01-24T01:30:52.789Z,534.00
2024-01-24T01:31:52.827Z,533.00
2024-01-24T01:32:53.296Z,531.00
2024-01-24T01:33:53.059Z,531.00
2024-01-24T01:34:52.946Z,532.00
2024-01-24T01:35:57.918Z,532.00
2024-01-24T01:36:53.999Z,535.00
2024-01-24T01:37:53.042Z,535.00
2024-01-24T01:38:53.174Z,535.00
2024-01-24T01:39:53.248Z,532.00
2024-01-24T01:40:53.206Z,533.00
2024-01-24T01:41:53.050Z,534.00
2024-01-24T01:42:53.069Z,532.00
2024-01-24T01:43:53.153Z,537.00
2024-01-24T01:44:53.169Z,535.00
2024-01-24T01:45:53.208Z,536.00
2024-01-24T01:46:53.064Z,540.00
2024-01-24T01:47:53.127Z,541.00
2024-01-24T01:48:53.272Z,544.00
2024-01-24T01:49:53.080Z,541.00
2024-01-24T01:50:52.998Z,538.00
2024-01-24T01:51:53.066Z,539.00
2024-01-24T01:52:53.021Z,540.00
2024-01-24T01:53:53.016Z,540.00
2024-01-24T01:54:53.334Z,537.00
2024-01-24T01:55:53.060Z,536.00
2024-01-24T01:56:53.284Z,533.00
2024-01-24T01:57:53.343Z,533.00
2024-01-24T01:58:53.133Z,534.00
2024-01-24T01:59:53.209Z,534.00
2024-01-24T02:00:53.317Z,542.00
2024-01-24T02:01:53.195Z,538.00
2024-01-24T02:02:53.338Z,537.00
2024-01-24T02:03:53.399Z,531.00
2024-01-24T02:04:53.307Z,529.00
2024-01-24T02:05:53.363Z,529.00
2024-01-24T02:06:53.411Z,534.00
2024-01-24T02:07:53.531Z,537.00
2024-01-24T02:08:53.387Z,538.00
2024-01-24T02:09:53.556Z,537.00
2024-01-24T02:10:53.480Z,538.00
2024-01-24T02:11:53.506Z,537.00
2024-01-24T02:12:53.560Z,541.00
2024-01-24T02:13:53.539Z,545.00
2024-01-24T02:14:53.561Z,546.00
2024-01-24T02:15:53.660Z,547.00
2024-01-24T02:16:53.619Z,546.00
2024-01-24T02:17:53.672Z,541.00
2024-01-24T02:18:53.747Z,539.00
2024-01-24T02:19:53.742Z,538.00
2024-01-24T02:20:53.750Z,535.00
2024-01-24T02:21:53.772Z,532.00
2024-01-24T02:22:53.780Z,533.00
2024-01-24T02:23:53.801Z,535.00
2024-01-24T02:24:53.827Z,533.00
2024-01-24T02:25:53.845Z,532.00
2024-01-24T02:26:53.881Z,529.00
2024-01-24T02:27:53.966Z,530.00
2024-01-24T02:28:53.917Z,526.00
2024-01-24T02:29:53.980Z,529.00
2024-01-24T02:30:54.064Z,537.00
2024-01-24T02:31:54.037Z,535.00
2024-01-24T02:32:54.076Z,534.00
2024-01-24T02:33:54.128Z,527.00
2024-01-24T02:34:54.196Z,530.00
2024-01-24T02:35:54.090Z,530.00
2024-01-24T02:36:54.190Z,530.00
2024-01-24T02:37:54.163Z,536.00
2024-01-24T02:38:56.908Z,541.00
2024-01-24T02:39:54.294Z,543.00
2024-01-24T02:40:54.190Z,541.00
2024-01-24T02:41:54.230Z,541.00
2024-01-24T02:42:54.248Z,537.00
2024-01-24T02:43:54.195Z,540.00
2024-01-24T02:44:54.199Z,545.00
2024-01-24T02:45:54.305Z,546.00
2024-01-24T02:46:54.240Z,541.00
2024-01-24T02:47:54.305Z,540.00
2024-01-24T02:48:54.353Z,533.00
2024-01-24T02:49:54.241Z,528.00
2024-01-24T02:50:54.216Z,524.00
2024-01-24T02:51:54.269Z,529.00
2024-01-24T02:52:54.232Z,533.00
2024-01-24T02:53:54.259Z,536.00
2024-01-24T02:54:54.288Z,538.00
2024-01-24T02:55:54.247Z,540.00
2024-01-24T02:56:54.244Z,542.00
2024-01-24T02:57:54.379Z,541.00
2024-01-24T02:58:54.274Z,539.00
2024-01-24T02:59:54.270Z,540.00
2024-01-24T03:00:54.317Z,539.00
2024-01-24T03:01:54.246Z,543.00
2024-01-24T03:02:54.253Z,546.00
2024-01-24T03:03:54.286Z,545.00
2024-01-24T03:04:54.337Z,541.00
2024-01-24T03:05:54.337Z,538.00
2024-01-24T03:06:54.383Z,540.00
2024-01-24T03:07:54.286Z,540.00
2024-01-24T03:08:54.261Z,539.00
2024-01-24T03:09:54.306Z,539.00
2024-01-24T03:10:54.583Z,540.00
2024-01-24T03:11:54.257Z,539.00
2024-01-24T03:12:54.305Z,538.00
2024-01-24T03:13:54.283Z,536.00
2024-01-24T03:14:54.291Z,532.00
2024-01-24T03:15:54.372Z,534.00
2024-01-24T03:16:54.302Z,538.00
2024-01-24T03:17:54.345Z,536.00
2024-01-24T03:18:54.367Z,537.00
2024-01-24T03:19:54.315Z,543.00
2024-01-24T03:20:54.311Z,546.00
2024-01-24T03:21:54.400Z,545.00
2024-01-24T03:22:54.396Z,543.00
2024-01-24T03:23:54.399Z,542.00
2024-01-24T03:24:54.519Z,540.00
2024-01-24T03:25:54.440Z,536.00
2024-01-24T03:26:54.488Z,531.00
2024-01-24T03:27:54.538Z,527.00
2024-01-24T03:28:54.844Z,529.00
2024-01-24T03:29:54.589Z,529.00
2024-01-24T03:30:54.709Z,533.00
2024-01-24T03:31:54.712Z,536.00
2024-01-24T03:32:54.806Z,535.00
2024-01-24T03:33:55.122Z,535.00
2024-01-24T03:34:54.759Z,534.00
2024-01-24T03:35:54.753Z,534.00
2024-01-24T03:36:54.786Z,536.00
2024-01-24T03:37:54.837Z,539.00
2024-01-24T03:38:54.842Z,539.00
2024-01-24T03:39:54.922Z,539.00
2024-01-24T03:40:54.888Z,538.00
2024-01-24T03:41:54.968Z,538.00
2024-01-24T03:42:55.006Z,533.00
2024-01-24T03:43:55.051Z,530.00
2024-01-24T03:44:55.072Z,524.00
2024-01-24T03:45:55.069Z,527.00
2024-01-24T03:46:55.075Z,530.00
2024-01-24T03:47:55.160Z,535.00
2024-01-24T03:48:55.223Z,540.00
2024-01-24T03:49:55.236Z,538.00
2024-01-24T03:50:55.210Z,536.00
2024-01-24T03:51:55.253Z,538.00
2024-01-24T03:52:55.264Z,539.00
2024-01-24T03:53:55.260Z,543.00
2024-01-24T03:54:55.361Z,545.00
2024-01-24T03:55:55.362Z,543.00
2024-01-24T03:56:55.386Z,541.00
2024-01-24T03:57:55.415Z,541.00
2024-01-24T03:58:55.449Z,541.00
2024-01-24T03:59:55.491Z,536.00
2024-01-24T04:00:55.595Z,538.00
2024-01-24T04:01:55.520Z,539.00
2024-01-24T04:02:55.630Z,539.00
2024-01-24T04:03:55.646Z,539.00
2024-01-24T04:04:55.683Z,538.00
2024-01-24T04:05:55.696Z,540.00
2024-01-24T04:06:55.779Z,540.00
2024-01-24T04:07:55.708Z,538.00
2024-01-24T04:08:55.763Z,535.00
2024-01-24T04:09:56.137Z,534.00
2024-01-24T04:10:55.789Z,534.00
2024-01-24T04:11:55.845Z,534.00
2024-01-24T04:12:56.015Z,534.00
2024-01-24T04:13:55.893Z,532.00
2024-01-24T04:14:56.266Z,529.00
2024-01-24T04:15:56.018Z,529.00
2024-01-24T04:16:55.962Z,527.00
2024-01-24T04:17:56.082Z,527.00
2024-01-24T04:18:56.127Z,527.00
2024-01-24T04:19:56.109Z,533.00
2024-01-24T04:20:56.105Z,534.00
2024-01-24T04:21:56.268Z,535.00
2024-01-24T04:22:56.171Z,535.00
2024-01-24T04:23:56.559Z,532.00
2024-01-24T04:24:56.331Z,530.00
2024-01-24T04:25:56.261Z,530.00
2024-01-24T04:26:56.303Z,532.00
2024-01-24T04:27:56.363Z,531.00
2024-01-24T04:29:03.524Z,538.00
2024-01-24T04:30:03.539Z,539.00
2024-01-24T04:31:10.762Z,530.00
2024-01-24T04:32:10.766Z,538.00
2024-01-24T04:33:10.814Z,540.00
2024-01-24T04:34:11.184Z,540.00
2024-01-24T04:35:10.810Z,538.00
2024-01-24T04:36:10.819Z,538.00
2024-01-24T04:37:10.732Z,538.00
2024-01-24T04:38:10.757Z,543.00
2024-01-24T04:39:10.768Z,538.00
2024-01-24T04:40:10.801Z,540.00
2024-01-24T04:41:10.792Z,544.00
2024-01-24T04:42:16.172Z,546.00
2024-01-24T04:43:11.821Z,546.00
2024-01-24T04:44:10.773Z,547.00
2024-01-24T04:45:11.086Z,548.00
2024-01-24T04:46:11.118Z,551.00
2024-01-24T04:47:11.194Z,550.00
2024-01-24T04:48:11.139Z,550.00
2024-01-24T04:49:22.965Z,548.00
2024-01-24T04:50:11.927Z,547.00
2024-01-24T04:51:10.791Z,546.00
2024-01-24T04:52:10.790Z,547.00
2024-01-24T04:53:10.829Z,546.00
2024-01-24T04:54:10.816Z,547.00
2024-01-24T04:55:10.821Z,547.00
2024-01-24T04:56:10.808Z,550.00
2024-01-24T04:57:10.811Z,551.00
2024-01-24T04:58:10.816Z,546.00
2024-01-24T04:59:10.793Z,546.00
2024-01-24T05:00:10.799Z,543.00
2024-01-24T05:01:10.918Z,538.00
2024-01-24T05:02:10.824Z,541.00
2024-01-24T05:03:10.894Z,539.00
2024-01-24T05:04:10.964Z,537.00
2024-01-24T05:05:10.878Z,536.00
2024-01-24T05:06:11.733Z,534.00
2024-01-24T05:07:10.892Z,534.00
2024-01-24T05:08:11.140Z,533.00
2024-01-24T05:09:11.150Z,531.00
2024-01-24T05:10:10.844Z,531.00
2024-01-24T05:11:10.808Z,530.00
2024-01-24T05:12:10.843Z,529.00
2024-01-24T05:13:10.848Z,532.00
2024-01-24T05:14:10.846Z,534.00
2024-01-24T05:15:10.850Z,534.00
2024-01-24T05:16:10.871Z,535.00
2024-01-24T05:17:10.929Z,536.00
2024-01-24T05:18:11.105Z,537.00
2024-01-24T05:19:11.020Z,535.00
2024-01-24T05:20:10.970Z,536.00
2024-01-24T05:21:11.028Z,537.00
2024-01-24T05:22:11.023Z,536.00
2024-01-24T05:23:11.088Z,539.00
2024-01-24T05:24:11.119Z,540.00
2024-01-24T05:25:11.134Z,541.00
2024-01-24T05:26:11.516Z,540.00
2024-01-24T05:27:11.241Z,538.00
2024-01-24T05:28:11.291Z,539.00
2024-01-24T05:29:11.250Z,537.00
2024-01-24T05:30:16.922Z,536.00
2024-01-24T05:31:12.326Z,536.00
2024-01-24T05:32:11.274Z,538.00
2024-01-24T05:33:11.309Z,540.00
2024-01-24T05:34:11.373Z,539.00
2024-01-24T05:35:11.284Z,540.00
2024-01-24T05:36:11.273Z,539.00
2024-01-24T05:37:11.297Z,539.00
2024-01-24T05:38:11.319Z,540.00
2024-01-24T05:39:11.307Z,541.00
2024-01-24T05:40:11.298Z,541.00
2024-01-24T05:41:11.305Z,541.00
2024-01-24T05:42:11.636Z,539.00
2024-01-24T05:43:11.325Z,540.00
2024-01-24T05:44:11.306Z,541.00
2024-01-24T05:45:11.303Z,543.00
2024-01-24T05:46:11.296Z,542.00
2024-01-24T05:47:11.326Z,541.00
2024-01-24T05:48:11.404Z,542.00
2024-01-24T05:49:11.611Z,542.00
2024-01-24T05:50:11.387Z,543.00
2024-01-24T05:51:11.459Z,543.00
2024-01-24T05:52:11.451Z,542.00
2024-01-24T05:53:11.520Z,545.00
2024-01-24T05:54:11.886Z,542.00
2024-01-24T05:55:11.555Z,540.00
2024-01-24T05:56:11.577Z,540.00
2024-01-24T05:57:11.636Z,540.00
2024-01-24T05:58:11.651Z,540.00
2024-01-24T05:59:15.224Z,543.00
2024-01-24T06:00:11.886Z,544.00
2024-01-24T06:02:40.949Z,548.00
2024-01-24T06:03:18.043Z,551.00
2024-01-24T06:04:18.019Z,550.00
2024-01-24T06:05:18.045Z,552.00
2024-01-24T06:06:18.102Z,555.00
2024-01-24T06:07:18.045Z,559.00
2024-01-24T06:08:18.003Z,564.00
2024-01-24T06:09:17.980Z,563.00
2024-01-24T06:10:17.963Z,561.00
2024-01-24T06:11:17.969Z,561.00
2024-01-24T06:12:17.978Z,562.00
2024-01-24T06:13:18.000Z,561.00
2024-01-24T06:14:18.077Z,564.00
2024-01-24T06:15:18.142Z,563.00
2024-01-24T06:16:18.111Z,561.00
2024-01-24T06:17:18.195Z,558.00
2024-01-24T06:18:18.292Z,558.00
2024-01-24T06:19:18.412Z,558.00
2024-01-24T06:20:18.321Z,556.00
2024-01-24T06:21:18.395Z,557.00
2024-01-24T06:22:18.319Z,556.00
2024-01-24T06:23:18.391Z,552.00
2024-01-24T06:24:19.488Z,551.00
2024-01-24T06:25:18.438Z,552.00
2024-01-24T06:26:18.452Z,552.00
2024-01-24T06:27:18.512Z,551.00
2024-01-24T06:28:18.649Z,550.00
2024-01-24T06:29:18.622Z,549.00
2024-01-24T06:31:18.782Z,582.00
2024-01-24T06:32:18.682Z,607.00
2024-01-24T06:33:19.070Z,603.00
2024-01-24T06:34:18.726Z,600.00
2024-01-24T06:35:18.783Z,609.00
2024-01-24T06:36:18.792Z,598.00
2024-01-24T06:37:18.708Z,614.00
2024-01-24T06:38:18.658Z,619.00
2024-01-24T06:39:18.712Z,632.00
2024-01-24T06:40:18.745Z,639.00
2024-01-24T06:41:18.803Z,627.00
2024-01-24T06:42:18.805Z,629.00
2024-01-24T06:43:18.777Z,619.00
2024-01-24T06:44:18.793Z,635.00
2024-01-24T06:45:19.015Z,636.00
2024-01-24T06:47:49.585Z,648.00
2024-01-24T06:48:25.279Z,656.00
2024-01-24T06:49:25.621Z,649.00
2024-01-24T06:50:25.182Z,645.00
2024-01-24T06:51:25.371Z,649.00
2024-01-24T06:52:25.306Z,671.00
2024-01-24T06:53:25.300Z,687.00
2024-01-24T06:54:25.298Z,681.00
2024-01-24T06:55:25.292Z,673.00
2024-01-24T06:56:25.340Z,667.00
2024-01-24T06:57:25.584Z,660.00
2024-01-24T06:58:25.332Z,658.00
2024-01-24T06:59:25.281Z,652.00
2024-01-24T07:00:25.466Z,645.00
2024-01-24T07:01:25.466Z,638.00
2024-01-24T07:02:25.351Z,620.00
2024-01-24T07:03:25.363Z,615.00
2024-01-24T07:04:25.389Z,619.00
2024-01-24T07:05:25.315Z,622.00
2024-01-24T07:06:25.468Z,621.00
2024-01-24T07:07:25.449Z,621.00
2024-01-24T07:08:25.356Z,618.00
2024-01-24T07:09:25.330Z,611.00
2024-01-24T07:10:28.003Z,607.00
2024-01-24T07:11:25.257Z,603.00
2024-01-24T07:12:25.666Z,608.00
2024-01-24T07:13:25.338Z,607.00
2024-01-24T07:14:25.194Z,604.00
2024-01-24T07:15:25.316Z,602.00
2024-01-24T07:16:25.723Z,598.00
2024-01-24T07:17:25.312Z,598.00
2024-01-24T07:18:25.593Z,601.00
2024-01-24T07:19:25.394Z,611.00
2024-01-24T07:20:25.306Z,616.00
2024-01-24T07:21:25.394Z,624.00
2024-01-24T07:22:25.440Z,639.00
2024-01-24T07:23:25.276Z,646.00
2024-01-24T07:24:25.268Z,640.00
2024-01-24T07:25:25.359Z,636.00
2024-01-24T07:26:25.240Z,632.00
2024-01-24T07:27:25.378Z,670.00
2024-01-24T07:28:25.409Z,669.00
2024-01-24T07:29:25.278Z,662.00
2024-01-24T07:30:25.527Z,661.00
2024-01-24T07:31:25.371Z,664.00
2024-01-24T07:32:25.336Z,656.00
2024-01-24T07:33:25.829Z,650.00
2024-01-24T07:34:25.553Z,655.00
2024-01-24T07:35:25.403Z,703.00
2024-01-24T07:36:25.419Z,728.00
2024-01-24T07:37:25.462Z,727.00
2024-01-24T07:38:25.720Z,779.00
2024-01-24T07:39:25.443Z,902.00
2024-01-24T07:40:25.405Z,1141.00
2024-01-24T07:41:25.479Z,1210.00
2024-01-24T07:42:25.561Z,1090.00
2024-01-24T07:43:25.863Z,964.00
2024-01-24T07:44:25.271Z,838.00
2024-01-24T07:45:25.357Z,754.00
2024-01-24T07:46:25.328Z,746.00
2024-01-24T07:47:25.512Z,682.00
2024-01-24T07:48:25.525Z,702.00
2024-01-24T07:49:25.331Z,716.00
2024-01-24T07:50:25.276Z,719.00
2024-01-24T07:51:25.296Z,792.00
2024-01-24T07:52:32.484Z,824.00
2024-01-24T07:53:26.299Z,771.00
2024-01-24T07:54:25.335Z,828.00
2024-01-24T07:55:32.252Z,859.00
2024-01-24T07:56:27.309Z,862.00
2024-01-24T07:57:25.530Z,858.00
2024-01-24T07:58:25.621Z,848.00
2024-01-24T07:59:25.472Z,840.00
2024-01-24T08:00:25.579Z,837.00
2024-01-24T08:01:25.650Z,837.00
2024-01-24T08:02:25.750Z,746.00
2024-01-24T08:03:26.429Z,718.00
2024-01-24T08:04:25.770Z,676.00
2024-01-24T08:05:25.716Z,678.00
2024-01-24T08:06:25.759Z,677.00
2024-01-24T08:07:25.768Z,676.00
2024-01-24T08:08:26.462Z,680.00
2024-01-24T08:09:25.839Z,681.00
2024-01-24T08:10:25.837Z,677.00
2024-01-24T08:11:26.510Z,674.00
2024-01-24T08:12:26.044Z,673.00
2024-01-24T08:13:26.188Z,673.00
2024-01-24T08:14:26.173Z,672.00
2024-01-24T08:15:26.079Z,675.00
2024-01-24T08:16:26.082Z,687.00
2024-01-24T08:17:26.178Z,695.00
2024-01-24T08:18:26.291Z,686.00
2024-01-24T08:19:26.329Z,679.00
2024-01-24T08:20:26.263Z,677.00
2024-01-24T08:21:26.387Z,680.00
2024-01-24T08:22:26.365Z,694.00
2024-01-24T08:23:31.675Z,731.00
2024-01-24T08:24:27.425Z,720.00
2024-01-24T08:25:26.398Z,690.00
2024-01-24T08:26:26.404Z,668.00
2024-01-24T08:27:26.474Z,670.00
2024-01-24T08:28:26.451Z,684.00
2024-01-24T08:29:32.765Z,729.00
2024-01-24T08:30:27.467Z,782.00
2024-01-24T08:31:26.415Z,836.00
2024-01-24T08:32:26.433Z,1027.00
2024-01-24T08:33:26.527Z,969.00
2024-01-24T08:34:26.593Z,1023.00
2024-01-24T08:35:26.996Z,1098.00
2024-01-24T08:36:26.400Z,1176.00
2024-01-24T08:37:26.413Z,1027.00
2024-01-24T08:38:26.405Z,929.00
2024-01-24T08:39:26.442Z,842.00
2024-01-24T08:40:26.404Z,812.00
2024-01-24T08:41:26.443Z,796.00
2024-01-24T08:42:26.468Z,793.00
2024-01-24T08:43:26.437Z,794.00
2024-01-24T08:44:26.452Z,782.00
2024-01-24T08:45:26.509Z,768.00
2024-01-24T08:46:26.466Z,752.00
2024-01-24T08:47:26.489Z,745.00
2024-01-24T08:48:26.694Z,752.00
2024-01-24T08:49:26.731Z,746.00
2024-01-24T08:50:26.665Z,737.00
2024-01-24T08:51:26.745Z,730.00
2024-01-24T08:52:26.801Z,732.00
2024-01-24T08:53:26.827Z,824.00
2024-01-24T08:54:26.903Z,894.00
2024-01-24T08:55:26.993Z,887.00
2024-01-24T08:56:26.981Z,819.00
2024-01-24T08:57:27.070Z,836.00
2024-01-24T08:58:27.025Z,810.00
2024-01-24T08:59:27.077Z,773.00
2024-01-24T09:00:27.130Z,771.00
2024-01-24T09:01:29.217Z,771.00
2024-01-24T09:02:27.159Z,796.00
2024-01-24T09:03:27.309Z,795.00
2024-01-24T09:04:27.221Z,801.00
2024-01-24T09:05:27.386Z,795.00
2024-01-24T09:06:27.224Z,822.00
2024-01-24T09:07:27.187Z,853.00
2024-01-24T09:08:27.156Z,850.00
2024-01-24T09:09:27.202Z,787.00
2024-01-24T09:10:27.300Z,808.00
2024-01-24T09:11:31.574Z,825.00
2024-01-24T09:12:28.163Z,830.00
2024-01-24T09:13:27.165Z,836.00
2024-01-24T09:14:27.178Z,840.00
2024-01-24T09:15:27.209Z,834.00
2024-01-24T09:16:27.197Z,832.00
2024-01-24T09:17:27.195Z,824.00
2024-01-24T09:18:27.354Z,798.00
2024-01-24T09:19:27.286Z,779.00
2024-01-24T09:20:27.305Z,770.00
2024-01-24T09:21:27.210Z,767.00
2024-01-24T09:22:27.180Z,759.00
2024-01-24T09:23:27.196Z,760.00
2024-01-24T09:24:27.593Z,774.00
2024-01-24T09:25:27.275Z,776.00
2024-01-24T09:26:27.255Z,773.00
2024-01-24T09:27:27.278Z,772.00
2024-01-24T09:28:27.275Z,767.00
2024-01-24T09:29:27.272Z,763.00
2024-01-24T09:30:27.401Z,768.00
2024-01-24T09:31:27.333Z,868.00
2024-01-24T09:32:27.341Z,896.00
2024-01-24T09:33:27.520Z,913.00
2024-01-24T09:34:27.795Z,922.00
2024-01-24T09:35:27.480Z,921.00
2024-01-24T09:36:27.353Z,922.00
2024-01-24T09:37:28.046Z,920.00
2024-01-24T09:38:27.410Z,894.00
2024-01-24T09:39:27.662Z,794.00
2024-01-24T09:40:27.668Z,750.00
2024-01-24T09:41:27.656Z,749.00
2024-01-24T09:42:27.723Z,826.00
2024-01-24T09:43:28.091Z,831.00
2024-01-24T09:44:28.093Z,830.00
2024-01-24T09:45:27.847Z,839.00
2024-01-24T09:46:27.816Z,841.00
2024-01-24T09:47:27.863Z,836.00
2024-01-24T09:48:27.934Z,836.00
2024-01-24T09:49:27.953Z,770.00
2024-01-24T09:50:28.069Z,749.00
2024-01-24T09:51:28.065Z,755.00
2024-01-24T09:52:28.117Z,821.00
2024-01-24T09:53:28.195Z,896.00
2024-01-24T09:54:28.237Z,895.00
2024-01-24T09:55:28.297Z,828.00
2024-01-24T09:56:28.282Z,786.00
2024-01-24T09:57:28.355Z,765.00
2024-01-24T09:58:28.375Z,761.00
2024-01-24T09:59:28.431Z,754.00
2024-01-24T10:00:28.529Z,749.00
2024-01-24T10:01:28.600Z,749.00
2024-01-24T10:02:28.630Z,747.00
2024-01-24T10:03:28.702Z,747.00
2024-01-24T10:04:28.920Z,745.00
2024-01-24T10:05:28.772Z,742.00
2024-01-24T10:06:28.806Z,742.00
2024-01-24T10:07:28.827Z,742.00
2024-01-24T10:08:28.824Z,743.00
2024-01-24T10:09:28.892Z,747.00
2024-01-24T10:10:28.867Z,742.00
2024-01-24T10:11:28.901Z,742.00
2024-01-24T10:12:28.907Z,747.00
2024-01-24T10:13:28.914Z,750.00
2024-01-24T10:14:28.902Z,749.00
2024-01-24T10:15:28.940Z,749.00
2024-01-24T10:16:28.963Z,754.00
2024-01-24T10:17:28.995Z,755.00
2024-01-24T10:18:29.075Z,755.00
2024-01-24T10:19:29.082Z,754.00
2024-01-24T10:20:28.984Z,758.00
2024-01-24T10:21:28.971Z,761.00
2024-01-24T10:22:29.039Z,755.00
2024-01-24T10:23:28.960Z,758.00
2024-01-24T10:24:29.074Z,760.00
2024-01-24T10:25:29.008Z,758.00
2024-01-24T10:26:28.937Z,755.00
2024-01-24T10:27:30.310Z,761.00
2024-01-24T10:28:29.162Z,774.00
2024-01-24T10:29:29.106Z,791.00
2024-01-24T10:30:29.130Z,807.00
2024-01-24T10:31:29.117Z,806.00
2024-01-24T10:32:29.156Z,793.00
2024-01-24T10:33:29.284Z,775.00
2024-01-24T10:34:29.368Z,776.00
2024-01-24T10:35:29.170Z,800.00
2024-01-24T10:36:32.751Z,811.00
2024-01-24T10:37:30.250Z,823.00
2024-01-24T10:38:29.177Z,825.00
2024-01-24T10:39:29.179Z,819.00
2024-01-24T10:40:29.186Z,815.00
2024-01-24T10:41:29.464Z,809.00
2024-01-24T10:42:29.236Z,1051.00
2024-01-24T10:43:29.156Z,1064.00
2024-01-24T10:44:29.145Z,1011.00
2024-01-24T10:45:29.593Z,931.00
2024-01-24T10:46:29.326Z,912.00
2024-01-24T10:47:31.602Z,942.00
2024-01-24T10:48:29.311Z,948.00
2024-01-24T10:49:29.206Z,945.00
2024-01-24T10:50:30.090Z,913.00
2024-01-24T10:51:29.223Z,980.00
2024-01-24T10:52:29.183Z,975.00
2024-01-24T10:53:29.183Z,971.00
2024-01-24T10:54:29.212Z,978.00
2024-01-24T10:55:29.608Z,1002.00
2024-01-24T10:56:29.168Z,1019.00
2024-01-24T10:57:29.186Z,1032.00
2024-01-24T10:58:29.161Z,1038.00
2024-01-24T10:59:29.177Z,1022.00
2024-01-24T11:00:29.596Z,1007.00
2024-01-24T11:01:29.310Z,995.00
2024-01-24T11:02:29.309Z,982.00
2024-01-24T11:03:29.280Z,905.00
2024-01-24T11:04:29.212Z,880.00
2024-01-24T11:05:29.678Z,876.00
2024-01-24T11:06:29.236Z,932.00
2024-01-24T11:07:29.179Z,929.00
2024-01-24T11:08:39.479Z,971.00
2024-01-24T11:09:30.282Z,943.00
2024-01-24T11:10:29.201Z,939.00
2024-01-24T11:11:29.217Z,939.00
2024-01-24T11:12:29.257Z,936.00
2024-01-24T11:13:30.100Z,926.00
2024-01-24T11:14:29.218Z,921.00
2024-01-24T11:15:29.211Z,844.00
2024-01-24T11:16:29.217Z,835.00
2024-01-24T11:17:29.274Z,832.00
2024-01-24T11:18:29.360Z,833.00
2024-01-24T11:19:29.491Z,871.00
2024-01-24T11:20:29.429Z,872.00
2024-01-24T11:21:29.860Z,980.00
2024-01-24T11:22:30.909Z,978.00
2024-01-24T11:23:29.635Z,953.00
2024-01-24T11:24:29.741Z,1088.00
2024-01-24T11:25:30.068Z,1146.00
2024-01-24T11:26:29.881Z,1122.00
2024-01-24T11:27:29.938Z,1065.00
2024-01-24T11:28:30.061Z,1072.00
2024-01-24T11:29:30.094Z,991.00
2024-01-24T11:30:30.622Z,1022.00
2024-01-24T11:31:30.289Z,893.00
2024-01-24T11:32:30.436Z,637.00
2024-01-24T11:33:30.370Z,706.00
2024-01-24T11:34:30.337Z,1099.00
2024-01-24T11:35:30.593Z,1030.00
2024-01-24T11:36:30.346Z,952.00
2024-01-24T11:37:30.321Z,859.00
2024-01-24T11:38:31.544Z,822.00
2024-01-24T11:39:30.451Z,805.00
2024-01-24T11:40:30.662Z,844.00
2024-01-24T11:41:30.549Z,797.00
2024-01-24T11:42:30.699Z,798.00
2024-01-24T11:43:32.841Z,799.00
2024-01-24T11:44:30.710Z,794.00
2024-01-24T11:45:31.209Z,800.00
2024-01-24T11:46:30.732Z,810.00
2024-01-24T11:47:30.757Z,816.00
2024-01-24T11:48:30.894Z,862.00
2024-01-24T11:49:31.087Z,862.00
2024-01-24T11:50:30.726Z,873.00
2024-01-24T11:51:30.771Z,824.00
2024-01-24T11:52:30.739Z,807.00
2024-01-24T11:53:30.735Z,814.00
2024-01-24T11:54:30.773Z,831.00
2024-01-24T11:55:30.732Z,829.00
2024-01-24T11:56:30.747Z,860.00
2024-01-24T11:57:30.791Z,854.00
2024-01-24T11:58:30.775Z,792.00
2024-01-24T11:59:30.716Z,871.00
2024-01-24T12:00:30.779Z,879.00
2024-01-24T12:01:30.896Z,911.00
2024-01-24T12:02:30.721Z,916.00
2024-01-24T12:03:30.842Z,917.00
2024-01-24T12:04:30.806Z,782.00
2024-01-24T12:05:30.764Z,782.00
2024-01-24T12:06:30.796Z,787.00
2024-01-24T12:07:30.788Z,814.00
2024-01-24T12:08:30.747Z,800.00
2024-01-24T12:09:30.834Z,799.00
2024-01-24T12:10:30.823Z,808.00
2024-01-24T12:11:30.873Z,824.00
2024-01-24T12:12:30.937Z,830.00
2024-01-24T12:13:31.096Z,835.00
2024-01-24T12:14:30.920Z,764.00
2024-01-24T12:15:31.026Z,831.00
2024-01-24T12:16:31.024Z,830.00
2024-01-24T12:17:31.097Z,760.00
2024-01-24T12:18:31.157Z,770.00
2024-01-24T12:19:31.246Z,754.00
2024-01-24T12:20:31.174Z,751.00
2024-01-24T12:21:31.236Z,773.00
2024-01-24T12:22:31.217Z,765.00
2024-01-24T12:23:31.214Z,749.00
2024-01-24T12:24:31.292Z,741.00
2024-01-24T12:25:31.278Z,754.00
2024-01-24T12:26:31.630Z,785.00
2024-01-24T12:27:31.304Z,936.00
2024-01-24T12:28:31.632Z,960.00
2024-01-24T12:29:31.460Z,1099.00
2024-01-24T12:30:31.526Z,1086.00
2024-01-24T12:31:32.405Z,721.00